Time;durP1;ratioP1;P1;durP2;ratioP2;P2;SDS_P1;SDS_P2;PMS_P1;PMS_P2;Temp;Humidity;BMP_temperature;BMP_pressure;BME280_temperature;BME280_humidity;BME280_pressure;Samples;Min_cycle;Max_cycle;Signal;HPM_P1;HPM_P2
2022/11/18 00:00:30;;;;;;;1999.90;999.90;;;7.10;99.90;;;;;;5036481;28;20041;-71
2022/11/18 00:02:56;;;;;;;1999.90;999.90;;;7.10;99.90;;;;;;5046327;28;20115;-71
2022/11/18 00:05:21;;;;;;;1999.90;999.90;;;7.10;99.90;;;;;;5028654;28;20056;-71
2022/11/18 00:07:47;;;;;;;1999.90;999.90;;;7.10;99.90;;;;;;5041388;28;20049;-71
2022/11/18 00:10:12;;;;;;;1999.90;999.90;;;7.10;99.90;;;;;;5045111;28;20037;-71
2022/11/18 00:15:22;;;;;;;1999.90;999.90;;;7.10;99.90;;;;;;5039032;28;20049;-71
2022/11/18 00:17:47;;;;;;;1999.90;999.90;;;7.20;99.90;;;;;;5041464;28;20048;-71
2022/11/18 00:20:13;;;;;;;1999.90;999.90;;;7.20;99.90;;;;;;5042386;28;20034;-72
2022/11/18 00:22:39;;;;;;;1999.90;999.90;;;7.10;99.90;;;;;;5042822;28;20037;-71
2022/11/18 00:25:05;;;;;;;1999.90;999.90;;;7.10;99.90;;;;;;5022438;28;20057;-71
2022/11/18 00:27:30;;;;;;;1999.90;999.90;;;7.20;99.90;;;;;;5042962;28;20037;-71
2022/11/18 00:29:57;;;;;;;1999.90;999.90;;;7.20;99.90;;;;;;5026224;28;20098;-71
2022/11/18 00:32:22;;;;;;;1999.90;999.90;;;7.20;99.90;;;;;;5049682;28;20056;-71
2022/11/18 00:34:48;;;;;;;1999.90;999.90;;;7.20;99.90;;;;;;5037938;28;20497;-71
2022/11/18 00:37:14;;;;;;;1999.90;999.90;;;7.20;99.90;;;;;;5044673;28;20056;-71
2022/11/18 00:39:40;;;;;;;1999.90;999.90;;;7.20;99.90;;;;;;5040160;28;20076;-71
2022/11/18 00:44:50;;;;;;;1999.90;999.90;;;7.20;99.90;;;;;;5038248;28;20041;-71
2022/11/18 00:47:16;;;;;;;1999.90;999.90;;;7.20;99.90;;;;;;5023406;28;20527;-71
2022/11/18 00:49:41;;;;;;;1999.90;999.90;;;7.20;99.90;;;;;;5038233;28;20718;-71
2022/11/18 00:52:07;;;;;;;1999.90;999.90;;;7.10;99.90;;;;;;5038222;28;20114;-71
2022/11/18 00:54:32;;;;;;;1999.90;999.90;;;7.10;99.90;;;;;;5042193;28;20115;-71
2022/11/18 00:56:58;;;;;;;1999.90;999.90;;;7.10;99.90;;;;;;5038064;28;20041;-71
2022/11/18 00:59:24;;;;;;;1999.90;999.90;;;7.10;99.90;;;;;;5035119;28;20497;-71
2022/11/18 01:01:49;;;;;;;1999.90;999.90;;;7.10;99.90;;;;;;5040065;28;20412;-71
2022/11/18 01:04:15;;;;;;;1999.90;999.90;;;7.20;99.90;;;;;;5042108;28;20045;-71
2022/11/18 01:06:41;;;;;;;1999.90;999.90;;;7.10;99.90;;;;;;5048766;28;20049;-71
2022/11/18 01:09:06;;;;;;;1999.90;999.90;;;7.10;99.90;;;;;;5041120;28;20037;-71
2022/11/18 01:14:17;;;;;;;1999.90;999.90;;;7.20;99.90;;;;;;5041790;28;20075;-71
2022/11/18 01:16:43;;;;;;;1999.90;999.90;;;7.10;99.90;;;;;;5035284;28;20531;-71
2022/11/18 01:19:08;;;;;;;1999.90;999.90;;;7.20;99.90;;;;;;5021115;28;22980;-71
2022/11/18 01:21:34;;;;;;;1999.90;999.90;;;7.20;99.90;;;;;;5036314;28;20045;-71
2022/11/18 01:23:59;;;;;;;1999.90;999.90;;;7.10;99.90;;;;;;5045155;28;20037;-71
2022/11/18 01:26:25;;;;;;;1999.90;999.90;;;7.10;99.90;;;;;;5016383;28;20607;-71
2022/11/18 01:28:55;;;;;;;1999.90;999.90;;;7.20;99.90;;;;;;5051536;28;20144;-71
2022/11/18 01:31:21;;;;;;;1999.90;999.90;;;7.20;99.90;;;;;;5031423;28;20488;-71
2022/11/18 01:33:46;;;;;;;1999.90;999.90;;;7.20;99.90;;;;;;5035113;28;20044;-71
2022/11/18 01:36:18;;;;;;;1999.90;999.90;;;7.20;99.90;;;;;;5016830;28;20050;-71
2022/11/18 01:38:44;;;;;;;1999.90;999.90;;;7.10;99.90;;;;;;5051496;28;20043;-71
2022/11/18 01:41:10;;;;;;;1999.90;999.90;;;7.10;99.90;;;;;;5036675;28;20283;-71
2022/11/18 01:43:58;;;;;;;1999.90;999.90;;;7.20;99.90;;;;;;5023036;28;20045;-71
2022/11/18 01:46:26;;;;;;;1999.90;999.90;;;7.20;99.90;;;;;;5040132;28;20057;-71
2022/11/18 01:49:10;;;;;;;1999.90;999.90;;;7.20;99.90;;;;;;5036939;28;20060;-71
2022/11/18 01:51:43;;;;;;;1999.90;999.90;;;7.20;99.90;;;;;;5015233;28;20130;-71
2022/11/18 01:54:13;;;;;;;1999.90;999.90;;;7.10;99.90;;;;;;5040877;28;20045;-71
2022/11/18 01:56:43;;;;;;;1999.90;999.90;;;7.10;99.90;;;;;;5048336;28;20053;-71
2022/11/18 01:59:15;;;;;;;1999.90;999.90;;;7.10;99.90;;;;;;5034021;28;20391;-71
2022/11/18 02:01:41;;;;;;;1999.90;999.90;;;7.10;99.90;;;;;;5022106;28;20045;-71
2022/11/18 02:04:08;;;;;;;1999.90;999.90;;;7.10;99.90;;;;;;5031181;28;20099;-71
2022/11/18 02:06:35;;;;;;;1999.90;999.90;;;7.10;99.90;;;;;;5042412;28;20045;-71
2022/11/18 02:09:01;;;;;;;1999.90;999.90;;;7.10;99.90;;;;;;5050295;28;20437;-71
2022/11/18 02:12:09;;;;;;;1999.90;999.90;;;7.10;99.90;;;;;;5021659;28;20087;-71
2022/11/18 02:14:18;;;;;;;1999.90;999.90;;;7.10;99.90;;;;;;5033132;28;20045;-71
2022/11/18 02:17:16;;;;;;;1999.90;999.90;;;7.10;99.90;;;;;;5040008;28;20293;-71
2022/11/18 02:20:12;;;;;;;1999.90;999.90;;;7.10;99.90;;;;;;5036091;28;20409;-71
2022/11/18 02:23:12;;;;;;;1999.90;999.90;;;7.10;99.90;;;;;;5036775;28;20071;-71
2022/11/18 02:26:08;;;;;;;1999.90;999.90;;;7.10;99.90;;;;;;5033332;28;20049;-71
2022/11/18 02:28:51;;;;;;;1999.90;999.90;;;7.10;99.90;;;;;;5038227;28;20079;-71
2022/11/18 02:31:28;;;;;;;1999.90;999.90;;;7.10;99.90;;;;;;5038559;28;20386;-71
2022/11/18 02:34:02;;;;;;;1999.90;999.90;;;7.10;99.90;;;;;;5035063;28;20041;-71
2022/11/18 02:36:37;;;;;;;1999.90;999.90;;;7.10;99.90;;;;;;5039077;28;20057;-71
2022/11/18 02:39:10;;;;;;;1999.90;999.90;;;7.10;99.90;;;;;;5047930;28;20044;-71
2022/11/18 02:41:38;;;;;;;1999.90;999.90;;;7.00;99.90;;;;;;5036602;28;20134;-71
2022/11/18 02:44:10;;;;;;;1999.90;999.90;;;7.10;99.90;;;;;;5056675;28;20392;-71
2022/11/18 02:46:38;;;;;;;1999.90;999.90;;;7.00;99.90;;;;;;5017577;28;20045;-71
2022/11/18 02:49:09;;;;;;;1999.90;999.90;;;7.00;99.90;;;;;;5039359;28;20037;-71
2022/11/18 02:51:36;;;;;;;1999.90;999.90;;;7.00;99.90;;;;;;5034322;28;20503;-71
2022/11/18 02:54:06;;;;;;;1999.90;999.90;;;7.00;99.90;;;;;;5038610;28;20397;-71
2022/11/18 02:56:34;;;;;;;1999.90;999.90;;;7.10;99.90;;;;;;5023089;28;20041;-71
2022/11/18 02:59:01;;;;;;;1999.90;999.90;;;7.00;99.90;;;;;;5060728;28;20090;-71
2022/11/18 03:01:29;;;;;;;1999.90;999.90;;;7.00;99.90;;;;;;5036366;28;20073;-71
2022/11/18 03:03:55;;;;;;;1999.90;999.90;;;7.00;99.90;;;;;;5047962;28;20045;-71
2022/11/18 03:06:40;;;;;;;1999.90;999.90;;;7.00;99.90;;;;;;5033971;28;20079;-71
2022/11/18 03:09:18;;;;;;;1999.90;999.90;;;7.00;99.90;;;;;;5037042;28;20040;-71
2022/11/18 03:12:31;;;;;;;1999.90;999.90;;;7.00;99.90;;;;;;5042821;28;20048;-71
2022/11/18 03:15:06;;;;;;;1999.90;999.90;;;7.00;99.90;;;;;;5014664;28;20048;-71
2022/11/18 03:17:43;;;;;;;1999.90;999.90;;;7.00;99.90;;;;;;5040870;28;20040;-71
2022/11/18 03:20:33;;;;;;;1999.90;999.90;;;7.00;99.90;;;;;;5036549;28;20075;-71
2022/11/18 03:23:19;;;;;;;1999.90;999.90;;;7.00;99.90;;;;;;5051829;28;20041;-71
2022/11/18 03:26:03;;;;;;;1999.90;999.90;;;7.00;99.90;;;;;;5035540;28;20045;-71
2022/11/18 03:28:32;;;;;;;1999.90;999.90;;;6.90;99.90;;;;;;5042703;28;20068;-71
2022/11/18 03:31:27;;;;;;;1999.90;999.90;;;6.90;99.90;;;;;;5043359;28;20052;-71
2022/11/18 03:33:58;;;;;;;1999.90;999.90;;;6.90;99.90;;;;;;5039303;28;20041;-71
2022/11/18 03:36:28;;;;;;;1999.90;999.90;;;6.90;99.90;;;;;;5037816;28;20133;-71
2022/11/18 03:38:57;;;;;;;1999.90;999.90;;;6.90;99.90;;;;;;5043152;28;20053;-71
2022/11/18 03:41:25;;;;;;;1999.90;999.90;;;6.90;99.90;;;;;;5044399;28;20095;-71
2022/11/18 03:43:59;;;;;;;1999.90;999.90;;;6.90;99.90;;;;;;5040960;28;20121;-71
2022/11/18 03:46:48;;;;;;;1999.90;999.90;;;6.90;99.90;;;;;;5033397;28;20045;-71
2022/11/18 03:49:20;;;;;;;1999.90;999.90;;;6.90;99.90;;;;;;5029335;28;20043;-71
2022/11/18 03:51:52;;;;;;;1999.90;999.90;;;6.90;99.90;;;;;;5039125;28;20068;-71
2022/11/18 03:54:23;;;;;;;1999.90;999.90;;;6.80;99.90;;;;;;5044517;28;20477;-71
2022/11/18 03:57:02;;;;;;;1999.90;999.90;;;6.80;99.90;;;;;;5051571;28;20099;-71
2022/11/18 03:59:34;;;;;;;1999.90;999.90;;;6.80;99.90;;;;;;5054550;28;20055;-71
2022/11/18 04:02:09;;;;;;;1999.90;999.90;;;6.80;99.90;;;;;;5028849;28;20400;-71
2022/11/18 04:04:36;;;;;;;1999.90;999.90;;;6.80;99.90;;;;;;5053895;28;20041;-71
2022/11/18 04:07:17;;;;;;;1999.90;999.90;;;6.80;99.90;;;;;;5040617;28;20072;-71
2022/11/18 04:10:14;;;;;;;1999.90;999.90;;;6.80;99.90;;;;;;5037515;28;20045;-71
2022/11/18 04:12:48;;;;;;;1999.90;999.90;;;6.80;99.90;;;;;;5029931;28;20041;-71
2022/11/18 04:15:14;;;;;;;1999.90;999.90;;;6.80;99.90;;;;;;5036655;28;20052;-71
2022/11/18 04:17:41;;;;;;;1999.90;999.90;;;6.80;99.90;;;;;;5045766;28;20037;-71
2022/11/18 04:20:16;;;;;;;1999.90;999.90;;;6.70;99.90;;;;;;5043199;28;20044;-71
2022/11/18 04:22:42;;;;;;;1999.90;999.90;;;6.70;99.90;;;;;;5037492;28;20200;-71
2022/11/18 04:25:07;;;;;;;1999.90;999.90;;;6.70;99.90;;;;;;5027481;28;20061;-71
2022/11/18 04:27:33;;;;;;;1999.90;999.90;;;6.70;99.90;;;;;;5022226;28;20116;-71
2022/11/18 04:29:58;;;;;;;1999.90;999.90;;;6.70;99.90;;;;;;5024104;28;20071;-71
2022/11/18 04:32:24;;;;;;;1999.90;999.90;;;6.70;99.90;;;;;;5040607;28;20052;-71
2022/11/18 04:34:49;;;;;;;1999.90;999.90;;;6.70;99.90;;;;;;5038008;28;20045;-71
2022/11/18 04:37:15;;;;;;;1999.90;999.90;;;6.70;99.90;;;;;;5035732;28;20041;-71
2022/11/18 04:39:40;;;;;;;1999.90;999.90;;;6.70;99.90;;;;;;5042557;28;20094;-71
2022/11/18 04:42:06;;;;;;;1999.90;999.90;;;6.70;99.90;;;;;;5041222;28;20068;-71
2022/11/18 04:44:33;;;;;;;1999.90;999.90;;;6.70;99.90;;;;;;5039736;28;20053;-71
2022/11/18 04:47:01;;;;;;;1999.90;999.90;;;6.70;99.90;;;;;;5032406;28;20404;-71
2022/11/18 04:49:27;;;;;;;1999.90;999.90;;;6.70;99.90;;;;;;5035637;28;20094;-71
2022/11/18 04:51:54;;;;;;;1999.90;999.90;;;6.70;99.90;;;;;;5039365;28;20033;-71
2022/11/18 04:54:20;;;;;;;1999.90;999.90;;;6.70;99.90;;;;;;5032753;28;20044;-71
2022/11/18 04:56:47;;;;;;;1999.90;999.90;;;6.70;99.90;;;;;;5041632;28;20091;-71
2022/11/18 04:59:14;;;;;;;1999.90;999.90;;;6.70;99.90;;;;;;5027332;28;20061;-71
2022/11/18 05:01:39;;;;;;;1999.90;999.90;;;6.70;99.90;;;;;;5033637;28;20048;-71
2022/11/18 05:04:06;;;;;;;1999.90;999.90;;;6.60;99.90;;;;;;5034049;28;20048;-71
2022/11/18 05:06:32;;;;;;;1999.90;999.90;;;6.60;99.90;;;;;;5023767;28;20042;-71
2022/11/18 05:08:58;;;;;;;1999.90;999.90;;;6.60;99.90;;;;;;5040112;28;20144;-71
2022/11/18 05:14:09;;;;;;;1999.90;999.90;;;6.60;99.90;;;;;;5040935;28;20045;-71
2022/11/18 05:16:35;;;;;;;1999.90;999.90;;;6.60;99.90;;;;;;5017090;28;20401;-71
2022/11/18 05:19:02;;;;;;;1999.90;999.90;;;6.60;99.90;;;;;;5036899;28;20037;-71
2022/11/18 05:21:28;;;;;;;1999.90;999.90;;;6.60;99.90;;;;;;5023590;28;20518;-71
2022/11/18 05:23:53;;;;;;;1999.90;999.90;;;6.60;99.90;;;;;;5040045;28;20124;-71
2022/11/18 05:26:19;;;;;;;1999.90;999.90;;;6.60;99.90;;;;;;5042224;28;20075;-71
2022/11/18 05:28:44;;;;;;;1999.90;999.90;;;6.60;99.90;;;;;;5032708;28;20046;-71
2022/11/18 05:31:15;;;;;;;1999.90;999.90;;;6.60;99.90;;;;;;5037542;28;20033;-71
2022/11/18 05:33:42;;;;;;;1999.90;999.90;;;6.60;99.90;;;;;;5021026;28;20049;-71
2022/11/18 05:36:10;;;;;;;1999.90;999.90;;;6.60;99.90;;;;;;5029917;28;20111;-71
2022/11/18 05:38:36;;;;;;;1999.90;999.90;;;6.50;99.90;;;;;;5041338;28;20397;-71
2022/11/18 05:41:02;;;;;;;1999.90;999.90;;;6.50;99.90;;;;;;5021096;28;20041;-71
2022/11/18 05:43:30;;;;;;;1999.90;999.90;;;6.50;99.90;;;;;;5019661;28;20045;-71
2022/11/18 05:45:56;;;;;;;1999.90;999.90;;;6.50;99.90;;;;;;5033366;28;20083;-71
2022/11/18 05:48:21;;;;;;;1999.90;999.90;;;6.50;99.90;;;;;;5041086;28;20064;-71
2022/11/18 05:50:49;;;;;;;1999.90;999.90;;;6.50;99.90;;;;;;5043049;28;20032;-71
2022/11/18 05:53:17;;;;;;;1999.90;999.90;;;6.50;99.90;;;;;;5022554;28;20041;-71
2022/11/18 05:55:57;;;;;;;1999.90;999.90;;;6.40;99.90;;;;;;5036735;28;20045;-71
2022/11/18 05:58:23;;;;;;;1999.90;999.90;;;6.50;99.90;;;;;;5034732;28;20048;-71
2022/11/18 06:00:54;;;;;;;1999.90;999.90;;;6.40;99.90;;;;;;5035900;28;20025;-71
2022/11/18 06:03:23;;;;;;;1999.90;999.90;;;6.40;99.90;;;;;;5030603;28;20064;-71
2022/11/18 06:05:51;;;;;;;1999.90;999.90;;;6.40;99.90;;;;;;5039635;28;20470;-71
2022/11/18 06:08:18;;;;;;;1999.90;999.90;;;6.40;99.90;;;;;;5029782;28;20041;-71
2022/11/18 06:10:45;;;;;;;1999.90;999.90;;;6.40;99.90;;;;;;5016557;28;20123;-71
2022/11/18 06:13:19;;;;;;;1999.90;999.90;;;6.40;99.90;;;;;;5046855;28;20375;-71
2022/11/18 06:15:45;;;;;;;1999.90;999.90;;;6.40;99.90;;;;;;5035058;28;20044;-71
2022/11/18 06:18:24;;;;;;;1999.90;999.90;;;6.40;99.90;;;;;;5040508;28;20041;-71
2022/11/18 06:20:53;;;;;;;1999.90;999.90;;;6.40;99.90;;;;;;5032446;28;20805;-71
2022/11/18 06:23:19;;;;;;;1999.90;999.90;;;6.40;99.90;;;;;;5032591;28;20128;-71
2022/11/18 06:25:45;;;;;;;1999.90;999.90;;;6.40;99.90;;;;;;5019922;28;20063;-71
2022/11/18 06:28:13;;;;;;;1999.90;999.90;;;6.30;99.90;;;;;;5048396;28;20049;-71
2022/11/18 06:30:39;;;;;;;1999.90;999.90;;;6.30;99.90;;;;;;5035528;28;20135;-71
2022/11/18 06:33:05;;;;;;;1999.90;999.90;;;6.30;99.90;;;;;;5034035;28;20049;-71
2022/11/18 06:35:31;;;;;;;1999.90;999.90;;;6.30;99.90;;;;;;5037847;28;20032;-71
2022/11/18 06:37:56;;;;;;;1999.90;999.90;;;6.30;99.90;;;;;;5039197;28;20040;-71
2022/11/18 06:40:22;;;;;;;1999.90;999.90;;;6.30;99.90;;;;;;5038965;28;20484;-71
2022/11/18 06:45:32;;;;;;;1999.90;999.90;;;6.40;99.90;;;;;;5037115;28;20056;-71
2022/11/18 06:48:01;;;;;;;1999.90;999.90;;;6.30;99.90;;;;;;5035069;28;20025;-71
2022/11/18 06:50:27;;;;;;;1999.90;999.90;;;6.30;99.90;;;;;;5023687;28;20044;-71
2022/11/18 06:52:53;;;;;;;1999.90;999.90;;;6.30;99.90;;;;;;5041034;28;20396;-71
2022/11/18 06:55:19;;;;;;;1999.90;999.90;;;6.30;99.90;;;;;;5019768;28;20041;-71
2022/11/18 06:57:44;;;;;;;1999.90;999.90;;;6.30;99.90;;;;;;5034795;28;20049;-71
2022/11/18 07:00:11;;;;;;;1999.90;999.90;;;6.30;99.90;;;;;;5033375;28;20073;-71
2022/11/18 07:02:36;;;;;;;1999.90;999.90;;;6.30;99.90;;;;;;5028292;28;20048;-71
2022/11/18 07:05:03;;;;;;;1999.90;999.90;;;6.30;99.90;;;;;;5051797;28;20551;-71
2022/11/18 07:07:28;;;;;;;1999.90;999.90;;;6.30;99.90;;;;;;5054288;28;20033;-71
2022/11/18 07:09:54;;;;;;;1999.90;999.90;;;6.30;99.90;;;;;;5037121;28;20029;-71
2022/11/18 07:12:20;;;;;;;1999.90;999.90;;;6.30;99.90;;;;;;5052580;28;20033;-71
2022/11/18 07:14:45;;;;;;;1999.90;999.90;;;6.30;99.90;;;;;;5036320;28;20503;-71
2022/11/18 07:17:11;;;;;;;1999.90;999.90;;;6.30;99.90;;;;;;5036439;28;20052;-71
2022/11/18 07:19:38;;;;;;;1999.90;999.90;;;6.30;99.90;;;;;;5016052;28;20037;-71
2022/11/18 07:22:04;;;;;;;1999.90;999.90;;;6.30;99.90;;;;;;5017912;28;20041;-71
2022/11/18 07:24:29;;;;;;;1999.90;999.90;;;6.30;99.90;;;;;;5032762;28;20053;-71
2022/11/18 07:26:55;;;;;;;1999.90;999.90;;;6.30;99.90;;;;;;5017065;28;20050;-71
2022/11/18 07:29:21;;;;;;;1999.90;999.90;;;6.30;99.90;;;;;;5028939;28;20065;-71
2022/11/18 07:31:46;;;;;;;1999.90;999.90;;;6.30;99.90;;;;;;5015431;28;20083;-71
2022/11/18 07:34:12;;;;;;;1999.90;999.90;;;6.30;99.90;;;;;;5039254;28;20044;-71
2022/11/18 07:36:38;;;;;;;1999.90;999.90;;;6.30;99.90;;;;;;5018439;28;20044;-71
2022/11/18 07:39:05;;;;;;;1999.90;999.90;;;6.30;99.90;;;;;;5038499;28;20037;-71
2022/11/18 07:41:31;;;;;;;1999.90;999.90;;;6.30;99.90;;;;;;5035349;28;20040;-71
2022/11/18 07:43:58;;;;;;;1999.90;999.90;;;6.30;99.90;;;;;;5024524;28;20047;-71
2022/11/18 07:46:25;;;;;;;1999.90;999.90;;;6.30;99.90;;;;;;5039265;28;20044;-71
2022/11/18 07:48:52;;;;;;;1999.90;999.90;;;6.20;99.90;;;;;;5036930;28;20037;-71
2022/11/18 07:51:21;;;;;;;1999.90;999.90;;;6.20;99.90;;;;;;5040688;28;20408;-71
2022/11/18 07:53:47;;;;;;;1999.90;999.90;;;6.20;99.90;;;;;;5042543;28;20497;-71
2022/11/18 07:56:13;;;;;;;1999.90;999.90;;;6.20;99.90;;;;;;5037764;28;20120;-71
2022/11/18 07:58:40;;;;;;;1999.90;999.90;;;6.20;99.90;;;;;;5042070;28;20048;-71
2022/11/18 08:01:17;;;;;;;1999.90;999.90;;;6.20;99.90;;;;;;5038830;28;20064;-71
2022/11/18 08:03:43;;;;;;;1999.90;999.90;;;6.20;99.90;;;;;;5024311;28;20068;-71
2022/11/18 08:06:11;;;;;;;1999.90;999.90;;;6.20;99.90;;;;;;5041971;28;20052;-71
2022/11/18 08:08:37;;;;;;;1999.90;999.90;;;6.20;99.90;;;;;;5042494;28;20036;-71
2022/11/18 08:11:05;;;;;;;1999.90;999.90;;;6.20;99.90;;;;;;5043901;28;20588;-71
2022/11/18 08:13:31;;;;;;;1999.90;999.90;;;6.20;99.90;;;;;;5017514;28;20036;-71
2022/11/18 08:15:57;;;;;;;1999.90;999.90;;;6.20;99.90;;;;;;5041322;28;20587;-71
2022/11/18 08:18:22;;;;;;;1999.90;999.90;;;6.20;99.90;;;;;;5035119;28;20048;-71
2022/11/18 08:20:48;;;;;;;1999.90;999.90;;;6.20;99.90;;;;;;5039332;28;20041;-71
2022/11/18 08:23:15;;;;;;;1999.90;999.90;;;6.20;99.90;;;;;;5043315;28;20099;-71
2022/11/18 08:25:42;;;;;;;1999.90;999.90;;;6.30;99.90;;;;;;5035392;28;20102;-71
2022/11/18 08:28:08;;;;;;;1999.90;999.90;;;6.20;99.90;;;;;;5025156;28;20128;-71
2022/11/18 08:30:34;;;;;;;1999.90;999.90;;;6.20;99.90;;;;;;5044104;28;20373;-71
2022/11/18 08:33:00;;;;;;;1999.90;999.90;;;6.20;99.90;;;;;;5031364;28;20455;-71
2022/11/18 08:35:28;;;;;;;1999.90;999.90;;;6.20;99.90;;;;;;5042182;28;20045;-71
2022/11/18 08:37:53;;;;;;;1999.90;999.90;;;6.20;99.90;;;;;;5044651;28;20118;-71
2022/11/18 08:40:19;;;;;;;1999.90;999.90;;;6.20;99.90;;;;;;5038211;28;20036;-71
2022/11/18 08:42:44;;;;;;;1999.90;999.90;;;6.20;99.90;;;;;;5014550;28;20568;-71
2022/11/18 08:45:10;;;;;;;1999.90;999.90;;;6.20;99.90;;;;;;5035890;28;20040;-71
2022/11/18 08:47:36;;;;;;;1999.90;999.90;;;6.20;99.90;;;;;;5042120;28;20405;-71
2022/11/18 08:50:04;;;;;;;1999.90;999.90;;;6.20;99.90;;;;;;5034125;28;20040;-71
2022/11/18 08:52:30;;;;;;;1999.90;999.90;;;6.20;99.90;;;;;;5037257;28;20079;-71
2022/11/18 08:54:56;;;;;;;1999.90;999.90;;;6.20;99.90;;;;;;5038681;28;20116;-71
2022/11/18 08:57:21;;;;;;;1999.90;999.90;;;6.20;99.90;;;;;;5037906;28;20045;-71
2022/11/18 08:59:47;;;;;;;1999.90;999.90;;;6.20;99.90;;;;;;5047716;28;20474;-71
2022/11/18 09:02:14;;;;;;;1999.90;999.90;;;6.20;99.90;;;;;;5045334;28;20048;-71
2022/11/18 09:04:39;;;;;;;1999.90;999.90;;;6.30;99.90;;;;;;5052366;28;20157;-71
2022/11/18 09:07:05;;;;;;;1999.90;999.90;;;6.30;99.90;;;;;;5035847;28;20146;-71
2022/11/18 09:09:31;;;;;;;1999.90;999.90;;;6.30;99.90;;;;;;5022334;28;20045;-71
2022/11/18 09:11:56;;;;;;;1999.90;999.90;;;6.30;99.90;;;;;;5042292;28;20037;-71
2022/11/18 09:14:22;;;;;;;1999.90;999.90;;;6.20;99.90;;;;;;5040741;28;20080;-71
2022/11/18 09:16:48;;;;;;;1999.90;999.90;;;6.30;99.90;;;;;;5042935;28;20122;-71
2022/11/18 09:19:15;;;;;;;1999.90;999.90;;;6.30;99.90;;;;;;5039918;28;20500;-71
2022/11/18 09:21:40;;;;;;;1999.90;999.90;;;6.30;99.90;;;;;;5046907;28;20044;-71
2022/11/18 09:24:07;;;;;;;1999.90;999.90;;;6.30;99.90;;;;;;5041987;28;20419;-71
2022/11/18 09:26:33;;;;;;;1999.90;999.90;;;6.30;99.90;;;;;;5038345;28;20151;-71
2022/11/18 09:28:58;;;;;;;1999.90;999.90;;;6.20;99.90;;;;;;5039139;28;20040;-71
2022/11/18 09:31:24;;;;;;;1999.90;999.90;;;6.30;99.90;;;;;;5037360;28;20456;-71
2022/11/18 09:33:50;;;;;;;1999.90;999.90;;;6.30;99.90;;;;;;5036910;28;20044;-71
2022/11/18 09:36:22;;;;;;;1999.90;999.90;;;6.30;99.90;;;;;;5016687;28;20082;-71
2022/11/18 09:38:48;;;;;;;1999.90;999.90;;;6.20;99.90;;;;;;5021741;28;20069;-71
2022/11/18 09:41:32;;;;;;;1999.90;999.90;;;6.20;99.90;;;;;;5018733;28;20072;-71
2022/11/18 09:44:12;;;;;;;1999.90;999.90;;;6.20;99.90;;;;;;5054244;28;20038;-71
2022/11/18 09:46:52;;;;;;;1999.90;999.90;;;6.20;99.90;;;;;;5050155;28;20038;-71
2022/11/18 09:49:31;;;;;;;1999.90;999.90;;;6.10;99.90;;;;;;5040984;28;20041;-71
2022/11/18 09:52:01;;;;;;;1999.90;999.90;;;6.10;99.90;;;;;;5040123;28;20507;-71
2022/11/18 09:54:32;;;;;;;1999.90;999.90;;;6.10;99.90;;;;;;5038068;28;20041;-71
2022/11/18 09:56:58;;;;;;;1999.90;999.90;;;6.10;99.90;;;;;;5034479;28;20048;-71
2022/11/18 09:59:27;;;;;;;1999.90;999.90;;;6.10;99.90;;;;;;5037272;28;20230;-70
2022/11/18 10:01:57;;;;;;;1999.90;999.90;;;6.10;99.90;;;;;;5040902;28;20036;-70
2022/11/18 10:04:22;;;;;;;1999.90;999.90;;;6.10;99.90;;;;;;5036230;28;20049;-71
2022/11/18 10:06:49;;;;;;;1999.90;999.90;;;6.10;99.90;;;;;;5045436;28;20451;-70
2022/11/18 10:09:22;;;;;;;1999.90;999.90;;;6.10;99.90;;;;;;5037402;28;20044;-71
2022/11/18 10:12:13;;;;;;;1999.90;999.90;;;6.10;99.90;;;;;;5021558;28;20115;-71
2022/11/18 10:14:41;;;;;;;1999.90;999.90;;;6.20;99.90;;;;;;5035366;28;20508;-71
2022/11/18 10:17:24;;;;;;;1999.90;999.90;;;6.20;99.90;;;;;;5039368;28;20052;-71
2022/11/18 10:19:56;;;;;;;1999.90;999.90;;;6.20;99.90;;;;;;5023861;28;20400;-71
2022/11/18 10:22:44;;;;;;;1999.90;999.90;;;6.30;99.90;;;;;;5031877;28;20052;-71
2022/11/18 10:25:15;;;;;;;1999.90;999.90;;;6.30;99.90;;;;;;5038636;28;20476;-71
2022/11/18 10:27:43;;;;;;;1999.90;999.90;;;6.20;99.90;;;;;;5019135;28;20448;-71
2022/11/18 10:30:17;;;;;;;1999.90;999.90;;;6.20;99.90;;;;;;5043887;28;20511;-71
2022/11/18 10:33:00;;;;;;;1999.90;999.90;;;6.20;99.90;;;;;;5048955;28;20119;-71
2022/11/18 10:35:31;;;;;;;1999.90;999.90;;;6.10;99.90;;;;;;5039746;28;20400;-71
2022/11/18 10:38:03;;;;;;;1999.90;999.90;;;6.10;99.90;;;;;;5032643;28;20128;-73
2022/11/18 10:40:30;;;;;;;1999.90;999.90;;;6.10;99.90;;;;;;5031812;28;20084;-71
2022/11/18 10:42:56;;;;;;;1999.90;999.90;;;6.00;99.90;;;;;;5050483;28;20623;-71
2022/11/18 10:45:21;;;;;;;1999.90;999.90;;;6.00;99.90;;;;;;5047778;28;20231;-71
2022/11/18 10:48:14;;;;;;;1999.90;999.90;;;6.00;99.90;;;;;;5025309;28;20159;-71
2022/11/18 10:50:43;;;;;;;1999.90;999.90;;;6.00;99.90;;;;;;5039731;28;20048;-71
2022/11/18 10:53:23;;;;;;;1999.90;999.90;;;6.00;99.90;;;;;;5035364;28;20978;-71
2022/11/18 10:56:07;;;;;;;1999.90;999.90;;;6.00;99.90;;;;;;5039435;28;20065;-71
2022/11/18 10:58:39;;;;;;;;;;;5.90;99.90;;;;;;5031698;28;20037;-71
2022/11/18 11:01:27;;;;;;;1999.90;999.90;;;5.90;99.90;;;;;;5034315;28;20350;-71
2022/11/18 11:04:00;;;;;;;1999.90;999.90;;;5.90;99.90;;;;;;5035687;28;20362;-71
2022/11/18 11:06:26;;;;;;;1999.90;999.90;;;5.80;99.90;;;;;;5020512;28;20033;-71
2022/11/18 11:08:55;;;;;;;1999.90;999.90;;;5.80;99.90;;;;;;5040372;28;20115;-71
2022/11/18 11:11:25;;;;;;;1999.90;999.90;;;5.80;99.90;;;;;;5031834;28;20409;-71
2022/11/18 11:13:54;;;;;;;1999.90;999.90;;;5.80;99.90;;;;;;5034190;28;20060;-71
2022/11/18 11:16:20;;;;;;;1999.90;999.90;;;5.70;99.90;;;;;;5045167;28;20067;-71
2022/11/18 11:18:53;;;;;;;1999.90;999.90;;;5.70;99.90;;;;;;5045600;28;20064;-71
2022/11/18 11:21:21;;;;;;;1999.90;999.90;;;5.70;99.90;;;;;;5041634;28;20071;-71
2022/11/18 11:23:47;;;;;;;1999.90;999.90;;;5.70;99.90;;;;;;5053449;28;20091;-71
2022/11/18 11:26:43;;;;;;;1999.90;999.90;;;5.70;99.90;;;;;;5040093;28;20067;-71
2022/11/18 11:29:21;;;;;;;1999.90;999.90;;;5.70;99.90;;;;;;5037904;28;20060;-71
2022/11/18 11:32:08;;;;;;;1999.90;999.90;;;5.60;99.90;;;;;;5040486;28;20114;-71
2022/11/18 11:35:05;;;;;;;1999.90;999.90;;;5.60;99.90;;;;;;5040159;28;20033;-71
2022/11/18 11:37:53;;;;;;;1999.90;999.90;;;5.60;99.90;;;;;;5026254;28;20148;-71
2022/11/18 11:40:38;;;;;;;1999.90;999.90;;;5.50;99.90;;;;;;5042908;28;20041;-71
2022/11/18 11:43:27;;;;;;;1999.90;999.90;;;5.50;99.90;;;;;;5037585;28;20134;-71
2022/11/18 11:46:18;;;;;;;1999.90;999.90;;;5.50;99.90;;;;;;5053194;28;20056;-72
2022/11/18 11:49:11;;;;;;;1999.90;999.90;;;5.40;99.90;;;;;;5052304;28;20050;-71
2022/11/18 11:51:50;;;;;;;1999.90;999.90;;;5.40;99.90;;;;;;5025998;28;20033;-71
2022/11/18 11:54:31;;;;;;;1999.90;999.90;;;5.30;99.90;;;;;;5025217;28;20044;-71
2022/11/18 11:57:08;;;;;;;1999.90;999.90;;;5.30;99.90;;;;;;5053905;28;20052;-71
2022/11/18 12:00:27;;;;;;;1999.90;999.90;;;5.20;99.90;;;;;;5028720;28;20053;-71
2022/11/18 12:03:38;;;;;;;1999.90;999.90;;;5.20;99.90;;;;;;4986504;28;20540;-71
2022/11/18 12:06:04;;;;;;;1999.90;999.90;;;5.20;99.90;;;;;;4971953;28;20129;-71
2022/11/18 12:08:31;;;;;;;1999.90;999.90;;;5.10;99.90;;;;;;4998782;28;20525;-71
2022/11/18 12:11:02;;;;;;;1999.90;999.90;;;5.10;99.90;;;;;;4970053;28;20046;-71
2022/11/18 12:13:37;;;;;;;1999.90;999.90;;;5.10;99.90;;;;;;4983822;28;20153;-71
2022/11/18 12:16:39;;;;;;;1999.90;999.90;;;5.00;99.90;;;;;;4996780;28;20049;-71
2022/11/18 12:19:14;;;;;;;1999.90;999.90;;;5.00;99.90;;;;;;4970541;28;20073;-71
2022/11/18 12:21:45;;;;;;;1999.90;999.90;;;5.00;99.90;;;;;;4986779;28;20113;-71
2022/11/18 12:24:17;;;;;;;1999.90;999.90;;;5.00;99.90;;;;;;4982071;28;21262;-71
2022/11/18 12:26:44;;;;;;;1999.90;999.90;;;4.90;99.90;;;;;;4996377;28;20084;-71
2022/11/18 12:29:19;;;;;;;1999.90;999.90;;;4.90;99.90;;;;;;4986677;28;20451;-71
2022/11/18 12:31:55;;;;;;;1999.90;999.90;;;4.90;99.90;;;;;;4981850;28;20049;-71
2022/11/18 12:34:24;;;;;;;1999.90;999.90;;;4.80;99.90;;;;;;4980859;28;20045;-71
2022/11/18 12:36:50;;;;;;;1999.90;999.90;;;4.80;99.90;;;;;;4994232;28;20453;-71
2022/11/18 12:39:25;;;;;;;1999.90;999.90;;;4.80;99.90;;;;;;5047224;28;20550;-71